sensor_id;sensor_type;location;lat;lon;timestamp;P1;durP1;ratioP1;P2;durP2;ratioP2
50932;SDS011;36921;49.006;9.292;2023-01-30T00:00:53;30.98;;;12.65;;
50932;SDS011;36921;49.006;9.292;2023-01-30T00:03:20;23.15;;;11.77;;
50932;SDS011;36921;49.006;9.292;2023-01-30T00:05:46;25.15;;;12.20;;
50932;SDS011;36921;49.006;9.292;2023-01-30T00:08:12;29.92;;;12.75;;
50932;SDS011;36921;49.006;9.292;2023-01-30T00:10:37;28.02;;;11.70;;
50932;SDS011;36921;49.006;9.292;2023-01-30T00:13:03;34.60;;;11.82;;
50932;SDS011;36921;49.006;9.292;2023-01-30T00:15:29;25.23;;;12.68;;
50932;SDS011;36921;49.006;9.292;2023-01-30T00:17:54;27.17;;;11.80;;
50932;SDS011;36921;49.006;9.292;2023-01-30T00:20:20;28.95;;;12.15;;
50932;SDS011;36921;49.006;9.292;2023-01-30T00:22:45;28.73;;;12.23;;
50932;SDS011;36921;49.006;9.292;2023-01-30T00:25:10;27.55;;;12.80;;
50932;SDS011;36921;49.006;9.292;2023-01-30T00:27:36;25.40;;;12.30;;
50932;SDS011;36921;49.006;9.292;2023-01-30T00:30:01;27.08;;;12.20;;
50932;SDS011;36921;49.006;9.292;2023-01-30T00:32:29;25.98;;;11.68;;
50932;SDS011;36921;49.006;9.292;2023-01-30T00:34:55;26.30;;;10.20;;
50932;SDS011;36921;49.006;9.292;2023-01-30T00:37:20;28.02;;;12.65;;
50932;SDS011;36921;49.006;9.292;2023-01-30T00:39:45;24.58;;;10.13;;
50932;SDS011;36921;49.006;9.292;2023-01-30T00:42:11;29.83;;;11.63;;
50932;SDS011;36921;49.006;9.292;2023-01-30T00:44:55;23.75;;;11.38;;
50932;SDS011;36921;49.006;9.292;2023-01-30T00:47:38;27.15;;;12.02;;
50932;SDS011;36921;49.006;9.292;2023-01-30T00:50:04;33.78;;;12.55;;
50932;SDS011;36921;49.006;9.292;2023-01-30T00:52:30;26.02;;;12.25;;
50932;SDS011;36921;49.006;9.292;2023-01-30T00:54:55;22.10;;;11.80;;
50932;SDS011;36921;49.006;9.292;2023-01-30T00:57:20;30.35;;;13.20;;
50932;SDS011;36921;49.006;9.292;2023-01-30T00:59:46;32.72;;;12.95;;
50932;SDS011;36921;49.006;9.292;2023-01-30T01:02:11;28.33;;;13.23;;
50932;SDS011;36921;49.006;9.292;2023-01-30T01:04:37;28.13;;;12.45;;
50932;SDS011;36921;49.006;9.292;2023-01-30T01:07:16;26.88;;;12.95;;
50932;SDS011;36921;49.006;9.292;2023-01-30T01:09:41;27.10;;;12.75;;
50932;SDS011;36921;49.006;9.292;2023-01-30T01:12:07;31.50;;;13.13;;
50932;SDS011;36921;49.006;9.292;2023-01-30T01:14:33;31.83;;;13.00;;
50932;SDS011;36921;49.006;9.292;2023-01-30T01:16:58;29.05;;;13.43;;
50932;SDS011;36921;49.006;9.292;2023-01-30T01:19:24;26.48;;;13.43;;
50932;SDS011;36921;49.006;9.292;2023-01-30T01:21:50;29.30;;;14.45;;
50932;SDS011;36921;49.006;9.292;2023-01-30T01:24:15;28.60;;;13.27;;
50932;SDS011;36921;49.006;9.292;2023-01-30T01:26:41;29.58;;;14.13;;
50932;SDS011;36921;49.006;9.292;2023-01-30T01:29:12;28.75;;;12.10;;
50932;SDS011;36921;49.006;9.292;2023-01-30T01:31:39;25.63;;;11.65;;
50932;SDS011;36921;49.006;9.292;2023-01-30T01:34:04;23.35;;;10.63;;
50932;SDS011;36921;49.006;9.292;2023-01-30T01:36:30;27.38;;;11.95;;
50932;SDS011;36921;49.006;9.292;2023-01-30T01:38:56;27.95;;;11.75;;
50932;SDS011;36921;49.006;9.292;2023-01-30T01:41:21;26.85;;;12.40;;
50932;SDS011;36921;49.006;9.292;2023-01-30T01:44:06;25.42;;;11.60;;
50932;SDS011;36921;49.006;9.292;2023-01-30T01:49:14;27.48;;;11.88;;
50932;SDS011;36921;49.006;9.292;2023-01-30T01:54:28;24.20;;;10.85;;
50932;SDS011;36921;49.006;9.292;2023-01-30T01:56:59;22.50;;;11.07;;
50932;SDS011;36921;49.006;9.292;2023-01-30T01:59:33;23.52;;;11.07;;
50932;SDS011;36921;49.006;9.292;2023-01-30T02:02:05;21.85;;;11.48;;
50932;SDS011;36921;49.006;9.292;2023-01-30T02:04:35;26.70;;;11.90;;
50932;SDS011;36921;49.006;9.292;2023-01-30T02:07:22;24.00;;;11.05;;
50932;SDS011;36921;49.006;9.292;2023-01-30T02:09:48;26.88;;;11.63;;
50932;SDS011;36921;49.006;9.292;2023-01-30T02:12:15;25.27;;;11.50;;
50932;SDS011;36921;49.006;9.292;2023-01-30T02:14:40;27.05;;;11.45;;
50932;SDS011;36921;49.006;9.292;2023-01-30T02:17:07;28.38;;;11.15;;
50932;SDS011;36921;49.006;9.292;2023-01-30T02:27:42;24.85;;;11.63;;
50932;SDS011;36921;49.006;9.292;2023-01-30T02:33:23;26.67;;;11.52;;
50932;SDS011;36921;49.006;9.292;2023-01-30T02:41:37;23.60;;;11.27;;
50932;SDS011;36921;49.006;9.292;2023-01-30T02:44:43;19.85;;;9.10;;
50932;SDS011;36921;49.006;9.292;2023-01-30T02:47:18;24.40;;;10.65;;
50932;SDS011;36921;49.006;9.292;2023-01-30T02:50:01;26.02;;;10.38;;
50932;SDS011;36921;49.006;9.292;2023-01-30T02:52:31;28.73;;;11.60;;
50932;SDS011;36921;49.006;9.292;2023-01-30T02:54:58;28.73;;;10.88;;
50932;SDS011;36921;49.006;9.292;2023-01-30T02:57:24;24.05;;;11.63;;
50932;SDS011;36921;49.006;9.292;2023-01-30T02:59:52;26.35;;;11.52;;
50932;SDS011;36921;49.006;9.292;2023-01-30T03:10:32;30.30;;;11.40;;
50932;SDS011;36921;49.006;9.292;2023-01-30T03:15:37;28.05;;;12.02;;
50932;SDS011;36921;49.006;9.292;2023-01-30T03:18:07;26.02;;;12.02;;
50932;SDS011;36921;49.006;9.292;2023-01-30T03:20:39;31.20;;;12.18;;
50932;SDS011;36921;49.006;9.292;2023-01-30T03:23:06;28.48;;;12.30;;
50932;SDS011;36921;49.006;9.292;2023-01-30T03:25:32;24.95;;;11.32;;
50932;SDS011;36921;49.006;9.292;2023-01-30T03:27:59;25.73;;;10.85;;
50932;SDS011;36921;49.006;9.292;2023-01-30T03:30:27;28.10;;;11.65;;
50932;SDS011;36921;49.006;9.292;2023-01-30T03:32:53;22.23;;;10.20;;
50932;SDS011;36921;49.006;9.292;2023-01-30T03:35:18;29.33;;;11.88;;
50932;SDS011;36921;49.006;9.292;2023-01-30T03:37:44;30.42;;;11.20;;
50932;SDS011;36921;49.006;9.292;2023-01-30T03:40:13;24.88;;;11.00;;
50932;SDS011;36921;49.006;9.292;2023-01-30T03:42:41;21.98;;;10.07;;
50932;SDS011;36921;49.006;9.292;2023-01-30T03:45:07;26.35;;;10.88;;
50932;SDS011;36921;49.006;9.292;2023-01-30T03:47:34;21.65;;;10.18;;
50932;SDS011;36921;49.006;9.292;2023-01-30T03:50:00;21.33;;;9.82;;
50932;SDS011;36921;49.006;9.292;2023-01-30T03:52:25;21.33;;;9.90;;
50932;SDS011;36921;49.006;9.292;2023-01-30T03:54:51;25.35;;;11.43;;
50932;SDS011;36921;49.006;9.292;2023-01-30T03:57:16;24.63;;;10.63;;
50932;SDS011;36921;49.006;9.292;2023-01-30T03:59:41;23.75;;;10.13;;
50932;SDS011;36921;49.006;9.292;2023-01-30T04:02:07;23.50;;;9.95;;
50932;SDS011;36921;49.006;9.292;2023-01-30T04:04:32;25.75;;;10.25;;
50932;SDS011;36921;49.006;9.292;2023-01-30T04:06:58;24.67;;;9.73;;
50932;SDS011;36921;49.006;9.292;2023-01-30T04:09:24;18.45;;;8.90;;
50932;SDS011;36921;49.006;9.292;2023-01-30T04:11:49;21.30;;;9.35;;
50932;SDS011;36921;49.006;9.292;2023-01-30T04:14:15;22.80;;;10.23;;
50932;SDS011;36921;49.006;9.292;2023-01-30T04:16:40;22.25;;;9.23;;
50932;SDS011;36921;49.006;9.292;2023-01-30T04:19:05;21.15;;;9.25;;
50932;SDS011;36921;49.006;9.292;2023-01-30T04:21:31;20.88;;;9.68;;
50932;SDS011;36921;49.006;9.292;2023-01-30T04:23:56;21.13;;;9.05;;
50932;SDS011;36921;49.006;9.292;2023-01-30T04:26:21;19.27;;;9.23;;
50932;SDS011;36921;49.006;9.292;2023-01-30T04:28:47;19.55;;;9.05;;
50932;SDS011;36921;49.006;9.292;2023-01-30T04:31:12;22.40;;;9.80;;
50932;SDS011;36921;49.006;9.292;2023-01-30T04:33:38;23.13;;;10.45;;
50932;SDS011;36921;49.006;9.292;2023-01-30T04:36:04;18.98;;;8.40;;
50932;SDS011;36921;49.006;9.292;2023-01-30T04:38:31;19.65;;;9.00;;
50932;SDS011;36921;49.006;9.292;2023-01-30T04:40:57;20.48;;;8.63;;
50932;SDS011;36921;49.006;9.292;2023-01-30T04:43:23;18.35;;;9.23;;
50932;SDS011;36921;49.006;9.292;2023-01-30T04:45:51;26.75;;;10.50;;
50932;SDS011;36921;49.006;9.292;2023-01-30T04:48:17;22.52;;;9.85;;
50932;SDS011;36921;49.006;9.292;2023-01-30T04:50:46;19.67;;;9.25;;
50932;SDS011;36921;49.006;9.292;2023-01-30T04:53:13;20.92;;;10.30;;
50932;SDS011;36921;49.006;9.292;2023-01-30T04:55:38;22.13;;;9.85;;
50932;SDS011;36921;49.006;9.292;2023-01-30T04:58:04;21.80;;;10.18;;
50932;SDS011;36921;49.006;9.292;2023-01-30T05:00:29;25.52;;;10.70;;
50932;SDS011;36921;49.006;9.292;2023-01-30T05:02:55;20.70;;;9.98;;
50932;SDS011;36921;49.006;9.292;2023-01-30T05:05:21;24.48;;;10.82;;
50932;SDS011;36921;49.006;9.292;2023-01-30T05:07:47;24.30;;;10.18;;
50932;SDS011;36921;49.006;9.292;2023-01-30T05:10:13;24.85;;;11.00;;
50932;SDS011;36921;49.006;9.292;2023-01-30T05:12:39;22.00;;;10.02;;
50932;SDS011;36921;49.006;9.292;2023-01-30T05:15:04;23.80;;;10.93;;
50932;SDS011;36921;49.006;9.292;2023-01-30T05:17:31;21.52;;;10.00;;
50932;SDS011;36921;49.006;9.292;2023-01-30T05:19:56;23.13;;;10.27;;
50932;SDS011;36921;49.006;9.292;2023-01-30T05:22:22;25.92;;;11.35;;
50932;SDS011;36921;49.006;9.292;2023-01-30T05:24:47;20.38;;;10.20;;
50932;SDS011;36921;49.006;9.292;2023-01-30T05:27:13;20.05;;;9.57;;
50932;SDS011;36921;49.006;9.292;2023-01-30T05:29:38;16.40;;;8.18;;
50932;SDS011;36921;49.006;9.292;2023-01-30T05:32:03;19.50;;;9.05;;
50932;SDS011;36921;49.006;9.292;2023-01-30T05:34:29;16.70;;;8.23;;
50932;SDS011;36921;49.006;9.292;2023-01-30T05:36:54;21.08;;;10.30;;
50932;SDS011;36921;49.006;9.292;2023-01-30T05:39:20;20.92;;;9.02;;
50932;SDS011;36921;49.006;9.292;2023-01-30T05:41:45;27.38;;;9.98;;
50932;SDS011;36921;49.006;9.292;2023-01-30T05:44:11;23.35;;;10.32;;
50932;SDS011;36921;49.006;9.292;2023-01-30T05:46:40;23.83;;;10.23;;
50932;SDS011;36921;49.006;9.292;2023-01-30T05:49:15;25.38;;;11.35;;
50932;SDS011;36921;49.006;9.292;2023-01-30T05:51:41;19.45;;;8.95;;
50932;SDS011;36921;49.006;9.292;2023-01-30T05:54:07;22.35;;;10.02;;
50932;SDS011;36921;49.006;9.292;2023-01-30T05:56:47;20.70;;;9.65;;
50932;SDS011;36921;49.006;9.292;2023-01-30T05:59:14;23.55;;;10.02;;
50932;SDS011;36921;49.006;9.292;2023-01-30T06:01:45;20.15;;;9.65;;
50932;SDS011;36921;49.006;9.292;2023-01-30T06:04:12;19.13;;;8.93;;
50932;SDS011;36921;49.006;9.292;2023-01-30T06:06:38;19.55;;;8.82;;
50932;SDS011;36921;49.006;9.292;2023-01-30T06:09:04;22.17;;;9.98;;
50932;SDS011;36921;49.006;9.292;2023-01-30T06:11:29;19.17;;;9.27;;
50932;SDS011;36921;49.006;9.292;2023-01-30T06:13:54;21.67;;;9.88;;
50932;SDS011;36921;49.006;9.292;2023-01-30T06:16:25;20.58;;;8.85;;
50932;SDS011;36921;49.006;9.292;2023-01-30T06:18:50;21.27;;;8.57;;
50932;SDS011;36921;49.006;9.292;2023-01-30T06:21:19;19.15;;;9.60;;
50932;SDS011;36921;49.006;9.292;2023-01-30T06:23:44;15.73;;;7.82;;
50932;SDS011;36921;49.006;9.292;2023-01-30T06:26:10;16.48;;;8.30;;
50932;SDS011;36921;49.006;9.292;2023-01-30T06:28:36;14.82;;;7.18;;
50932;SDS011;36921;49.006;9.292;2023-01-30T06:31:04;17.10;;;8.35;;
50932;SDS011;36921;49.006;9.292;2023-01-30T06:33:30;16.33;;;7.30;;
50932;SDS011;36921;49.006;9.292;2023-01-30T06:35:55;13.48;;;6.82;;
50932;SDS011;36921;49.006;9.292;2023-01-30T06:38:21;16.42;;;6.53;;
50932;SDS011;36921;49.006;9.292;2023-01-30T06:40:47;16.05;;;7.05;;
50932;SDS011;36921;49.006;9.292;2023-01-30T06:43:13;15.85;;;6.95;;
50932;SDS011;36921;49.006;9.292;2023-01-30T06:45:39;13.70;;;6.50;;
50932;SDS011;36921;49.006;9.292;2023-01-30T06:48:05;13.75;;;6.68;;
50932;SDS011;36921;49.006;9.292;2023-01-30T06:50:30;14.05;;;6.63;;
50932;SDS011;36921;49.006;9.292;2023-01-30T06:52:56;14.35;;;6.68;;
50932;SDS011;36921;49.006;9.292;2023-01-30T06:55:23;14.30;;;6.35;;
50932;SDS011;36921;49.006;9.292;2023-01-30T06:58:12;13.60;;;5.75;;
50932;SDS011;36921;49.006;9.292;2023-01-30T07:00:38;12.93;;;6.22;;
50932;SDS011;36921;49.006;9.292;2023-01-30T07:03:05;14.40;;;6.57;;
50932;SDS011;36921;49.006;9.292;2023-01-30T07:05:36;12.02;;;5.88;;
50932;SDS011;36921;49.006;9.292;2023-01-30T07:08:09;12.50;;;5.50;;
50932;SDS011;36921;49.006;9.292;2023-01-30T07:10:35;17.20;;;7.30;;
50932;SDS011;36921;49.006;9.292;2023-01-30T07:13:01;11.35;;;5.28;;
50932;SDS011;36921;49.006;9.292;2023-01-30T07:15:27;13.80;;;6.70;;
50932;SDS011;36921;49.006;9.292;2023-01-30T07:17:52;13.95;;;5.70;;
50932;SDS011;36921;49.006;9.292;2023-01-30T07:20:18;11.80;;;5.63;;
50932;SDS011;36921;49.006;9.292;2023-01-30T07:22:50;12.05;;;5.65;;
50932;SDS011;36921;49.006;9.292;2023-01-30T07:25:21;12.07;;;5.88;;
50932;SDS011;36921;49.006;9.292;2023-01-30T07:28:01;14.15;;;6.35;;
50932;SDS011;36921;49.006;9.292;2023-01-30T07:30:27;12.32;;;5.95;;
50932;SDS011;36921;49.006;9.292;2023-01-30T07:32:54;12.73;;;6.13;;
50932;SDS011;36921;49.006;9.292;2023-01-30T07:35:22;12.95;;;6.68;;
50932;SDS011;36921;49.006;9.292;2023-01-30T07:37:48;12.57;;;6.20;;
50932;SDS011;36921;49.006;9.292;2023-01-30T07:40:14;12.52;;;6.03;;
50932;SDS011;36921;49.006;9.292;2023-01-30T07:42:40;10.40;;;5.57;;
50932;SDS011;36921;49.006;9.292;2023-01-30T07:45:06;10.88;;;5.55;;
50932;SDS011;36921;49.006;9.292;2023-01-30T07:47:33;14.75;;;6.82;;
50932;SDS011;36921;49.006;9.292;2023-01-30T07:49:59;14.32;;;6.55;;
50932;SDS011;36921;49.006;9.292;2023-01-30T07:52:24;12.27;;;5.80;;
50932;SDS011;36921;49.006;9.292;2023-01-30T07:54:49;13.63;;;6.40;;
50932;SDS011;36921;49.006;9.292;2023-01-30T07:57:15;17.88;;;7.10;;
50932;SDS011;36921;49.006;9.292;2023-01-30T07:59:40;15.98;;;5.68;;
50932;SDS011;36921;49.006;9.292;2023-01-30T08:02:08;19.17;;;7.60;;
50932;SDS011;36921;49.006;9.292;2023-01-30T08:04:35;15.07;;;6.47;;
50932;SDS011;36921;49.006;9.292;2023-01-30T08:07:00;14.88;;;7.05;;
50932;SDS011;36921;49.006;9.292;2023-01-30T08:09:26;22.58;;;8.75;;
50932;SDS011;36921;49.006;9.292;2023-01-30T08:11:51;19.55;;;7.90;;
50932;SDS011;36921;49.006;9.292;2023-01-30T08:14:16;13.15;;;6.75;;
50932;SDS011;36921;49.006;9.292;2023-01-30T08:16:43;15.45;;;6.68;;
50932;SDS011;36921;49.006;9.292;2023-01-30T08:19:08;14.38;;;6.32;;
50932;SDS011;36921;49.006;9.292;2023-01-30T08:21:34;14.50;;;6.80;;
50932;SDS011;36921;49.006;9.292;2023-01-30T08:23:59;17.10;;;7.55;;
50932;SDS011;36921;49.006;9.292;2023-01-30T08:26:24;13.75;;;6.80;;
50932;SDS011;36921;49.006;9.292;2023-01-30T08:28:50;15.05;;;6.10;;
50932;SDS011;36921;49.006;9.292;2023-01-30T08:31:16;12.35;;;6.43;;
50932;SDS011;36921;49.006;9.292;2023-01-30T08:33:42;14.07;;;5.90;;
50932;SDS011;36921;49.006;9.292;2023-01-30T08:36:07;16.85;;;6.72;;
50932;SDS011;36921;49.006;9.292;2023-01-30T08:38:33;11.98;;;5.28;;
50932;SDS011;36921;49.006;9.292;2023-01-30T08:41:02;11.35;;;6.30;;
50932;SDS011;36921;49.006;9.292;2023-01-30T08:46:00;11.65;;;5.63;;
50932;SDS011;36921;49.006;9.292;2023-01-30T08:48:25;10.70;;;5.50;;
50932;SDS011;36921;49.006;9.292;2023-01-30T08:50:54;13.90;;;6.05;;
50932;SDS011;36921;49.006;9.292;2023-01-30T08:53:20;11.52;;;5.47;;
50932;SDS011;36921;49.006;9.292;2023-01-30T08:55:48;12.07;;;5.22;;
50932;SDS011;36921;49.006;9.292;2023-01-30T08:58:15;11.55;;;5.55;;
50932;SDS011;36921;49.006;9.292;2023-01-30T09:00:40;14.50;;;5.30;;
50932;SDS011;36921;49.006;9.292;2023-01-30T09:03:08;11.98;;;5.82;;
50932;SDS011;36921;49.006;9.292;2023-01-30T09:05:34;14.15;;;6.22;;
50932;SDS011;36921;49.006;9.292;2023-01-30T09:07:59;13.77;;;5.70;;
50932;SDS011;36921;49.006;9.292;2023-01-30T09:10:25;12.10;;;5.32;;
50932;SDS011;36921;49.006;9.292;2023-01-30T09:12:50;13.10;;;5.82;;
50932;SDS011;36921;49.006;9.292;2023-01-30T09:15:15;11.50;;;5.95;;
50932;SDS011;36921;49.006;9.292;2023-01-30T09:17:41;13.63;;;6.10;;
50932;SDS011;36921;49.006;9.292;2023-01-30T09:20:09;12.40;;;5.07;;
50932;SDS011;36921;49.006;9.292;2023-01-30T09:22:35;14.55;;;5.25;;
50932;SDS011;36921;49.006;9.292;2023-01-30T09:25:01;10.30;;;5.07;;
50932;SDS011;36921;49.006;9.292;2023-01-30T09:27:26;12.20;;;5.10;;
50932;SDS011;36921;49.006;9.292;2023-01-30T09:29:51;12.10;;;4.95;;
50932;SDS011;36921;49.006;9.292;2023-01-30T09:32:17;12.05;;;5.80;;
50932;SDS011;36921;49.006;9.292;2023-01-30T09:34:42;10.48;;;5.47;;
50932;SDS011;36921;49.006;9.292;2023-01-30T09:37:07;11.30;;;5.20;;
50932;SDS011;36921;49.006;9.292;2023-01-30T09:39:33;11.18;;;5.57;;
50932;SDS011;36921;49.006;9.292;2023-01-30T09:56:03;10.00;;;4.72;;
50932;SDS011;36921;49.006;9.292;2023-01-30T09:58:50;10.45;;;4.75;;
50932;SDS011;36921;49.006;9.292;2023-01-30T10:01:26;13.65;;;5.05;;
50932;SDS011;36921;49.006;9.292;2023-01-30T10:06:30;7.72;;;3.88;;
50932;SDS011;36921;49.006;9.292;2023-01-30T10:09:16;9.60;;;4.65;;
50932;SDS011;36921;49.006;9.292;2023-01-30T10:15:34;9.70;;;4.28;;
50932;SDS011;36921;49.006;9.292;2023-01-30T10:18:20;10.75;;;4.07;;
50932;SDS011;36921;49.006;9.292;2023-01-30T10:21:16;9.40;;;3.50;;
50932;SDS011;36921;49.006;9.292;2023-01-30T10:24:11;5.57;;;1.40;;
50932;SDS011;36921;49.006;9.292;2023-01-30T10:26:46;4.32;;;1.85;;
50932;SDS011;36921;49.006;9.292;2023-01-30T10:29:20;3.80;;;1.85;;
50932;SDS011;36921;49.006;9.292;2023-01-30T10:32:34;1.88;;;1.05;;
50932;SDS011;36921;49.006;9.292;2023-01-30T10:34:53;3.10;;;1.50;;
50932;SDS011;36921;49.006;9.292;2023-01-30T10:40:01;2.40;;;1.45;;
50932;SDS011;36921;49.006;9.292;2023-01-30T10:42:42;2.42;;;1.30;;
50932;SDS011;36921;49.006;9.292;2023-01-30T10:45:20;1.73;;;1.02;;
50932;SDS011;36921;49.006;9.292;2023-01-30T10:50:58;1.17;;;0.90;;
50932;SDS011;36921;49.006;9.292;2023-01-30T10:53:34;2.20;;;1.15;;
50932;SDS011;36921;49.006;9.292;2023-01-30T10:56:26;1.85;;;1.00;;
50932;SDS011;36921;49.006;9.292;2023-01-30T10:59:22;2.83;;;1.10;;
50932;SDS011;36921;49.006;9.292;2023-01-30T11:01:57;2.70;;;1.30;;
50932;SDS011;36921;49.006;9.292;2023-01-30T11:07:10;5.70;;;2.08;;
50932;SDS011;36921;49.006;9.292;2023-01-30T11:09:38;2.92;;;1.40;;
50932;SDS011;36921;49.006;9.292;2023-01-30T11:12:08;3.13;;;1.60;;
50932;SDS011;36921;49.006;9.292;2023-01-30T11:19:56;4.28;;;1.80;;
50932;SDS011;36921;49.006;9.292;2023-01-30T11:22:26;2.88;;;1.63;;
50932;SDS011;36921;49.006;9.292;2023-01-30T11:25:08;3.65;;;1.83;;
50932;SDS011;36921;49.006;9.292;2023-01-30T11:27:38;6.63;;;2.03;;
50932;SDS011;36921;49.006;9.292;2023-01-30T11:30:19;2.83;;;1.25;;
50932;SDS011;36921;49.006;9.292;2023-01-30T11:32:49;3.53;;;1.92;;
50932;SDS011;36921;49.006;9.292;2023-01-30T11:42:44;6.90;;;2.47;;
50932;SDS011;36921;49.006;9.292;2023-01-30T11:45:11;5.93;;;2.58;;
50932;SDS011;36921;49.006;9.292;2023-01-30T11:47:37;3.25;;;1.30;;
50932;SDS011;36921;49.006;9.292;2023-01-30T11:50:10;4.90;;;1.92;;
50932;SDS011;36921;49.006;9.292;2023-01-30T11:52:43;4.05;;;1.90;;
50932;SDS011;36921;49.006;9.292;2023-01-30T11:55:12;3.90;;;2.30;;
50932;SDS011;36921;49.006;9.292;2023-01-30T11:57:40;5.97;;;2.40;;
50932;SDS011;36921;49.006;9.292;2023-01-30T12:00:18;3.38;;;1.35;;
50932;SDS011;36921;49.006;9.292;2023-01-30T12:02:46;2.17;;;1.13;;
50932;SDS011;36921;49.006;9.292;2023-01-30T12:05:32;4.43;;;1.92;;
50932;SDS011;36921;49.006;9.292;2023-01-30T12:10:45;2.85;;;1.45;;
50932;SDS011;36921;49.006;9.292;2023-01-30T12:13:18;2.25;;;1.38;;
50932;SDS011;36921;49.006;9.292;2023-01-30T12:16:00;3.75;;;1.50;;
50932;SDS011;36921;49.006;9.292;2023-01-30T12:18:47;2.75;;;1.70;;
50932;SDS011;36921;49.006;9.292;2023-01-30T12:21:25;1.45;;;1.10;;
50932;SDS011;36921;49.006;9.292;2023-01-30T12:24:04;1.45;;;0.80;;
50932;SDS011;36921;49.006;9.292;2023-01-30T12:26:55;1.80;;;0.93;;
50932;SDS011;36921;49.006;9.292;2023-01-30T12:29:28;1.52;;;0.98;;
50932;SDS011;36921;49.006;9.292;2023-01-30T12:32:15;2.00;;;1.00;;
50932;SDS011;36921;49.006;9.292;2023-01-30T12:34:43;5.80;;;2.00;;
50932;SDS011;36921;49.006;9.292;2023-01-30T13:10:21;2.90;;;1.23;;
50932;SDS011;36921;49.006;9.292;2023-01-30T13:15:25;2.42;;;1.30;;
50932;SDS011;36921;49.006;9.292;2023-01-30T13:26:10;3.28;;;1.75;;
50932;SDS011;36921;49.006;9.292;2023-01-30T13:28:59;3.35;;;1.63;;
50932;SDS011;36921;49.006;9.292;2023-01-30T13:31:30;3.45;;;1.40;;
50932;SDS011;36921;49.006;9.292;2023-01-30T13:34:10;2.92;;;1.50;;
50932;SDS011;36921;49.006;9.292;2023-01-30T13:39:51;3.83;;;2.25;;
50932;SDS011;36921;49.006;9.292;2023-01-30T13:42:24;5.50;;;2.30;;
50932;SDS011;36921;49.006;9.292;2023-01-30T13:44:55;3.92;;;2.22;;
50932;SDS011;36921;49.006;9.292;2023-01-30T13:47:43;4.88;;;2.25;;
50932;SDS011;36921;49.006;9.292;2023-01-30T13:50:29;5.07;;;2.28;;
50932;SDS011;36921;49.006;9.292;2023-01-30T13:58:11;6.00;;;2.65;;
50932;SDS011;36921;49.006;9.292;2023-01-30T14:00:54;6.85;;;3.35;;
50932;SDS011;36921;49.006;9.292;2023-01-30T14:05:59;8.15;;;3.80;;
50932;SDS011;36921;49.006;9.292;2023-01-30T14:08:28;8.15;;;3.97;;
50932;SDS011;36921;49.006;9.292;2023-01-30T14:10:59;6.22;;;3.20;;
50932;SDS011;36921;49.006;9.292;2023-01-30T14:13:26;6.32;;;3.33;;
50932;SDS011;36921;49.006;9.292;2023-01-30T14:20:45;8.02;;;3.55;;
50932;SDS011;36921;49.006;9.292;2023-01-30T14:25:52;7.50;;;3.85;;
50932;SDS011;36921;49.006;9.292;2023-01-30T14:35:46;5.57;;;2.75;;
50932;SDS011;36921;49.006;9.292;2023-01-30T14:38:18;5.95;;;3.38;;
50932;SDS011;36921;49.006;9.292;2023-01-30T15:04:40;7.28;;;3.60;;
50932;SDS011;36921;49.006;9.292;2023-01-30T15:07:10;4.47;;;2.67;;
50932;SDS011;36921;49.006;9.292;2023-01-30T15:09:36;6.25;;;3.25;;
50932;SDS011;36921;49.006;9.292;2023-01-30T15:14:44;5.97;;;2.78;;
50932;SDS011;36921;49.006;9.292;2023-01-30T15:24:05;13.05;;;5.30;;
50932;SDS011;36921;49.006;9.292;2023-01-30T15:32:40;5.78;;;2.90;;
50932;SDS011;36921;49.006;9.292;2023-01-30T15:42:49;7.50;;;3.78;;
50932;SDS011;36921;49.006;9.292;2023-01-30T15:48:08;9.02;;;4.85;;
50932;SDS011;36921;49.006;9.292;2023-01-30T15:50:37;8.13;;;3.97;;
50932;SDS011;36921;49.006;9.292;2023-01-30T15:53:03;9.80;;;3.92;;
50932;SDS011;36921;49.006;9.292;2023-01-30T15:55:34;9.93;;;4.15;;
50932;SDS011;36921;49.006;9.292;2023-01-30T15:58:05;9.60;;;4.65;;
50932;SDS011;36921;49.006;9.292;2023-01-30T16:00:39;8.45;;;3.80;;
50932;SDS011;36921;49.006;9.292;2023-01-30T16:03:10;10.00;;;4.07;;
50932;SDS011;36921;49.006;9.292;2023-01-30T16:05:45;8.88;;;4.25;;
50932;SDS011;36921;49.006;9.292;2023-01-30T16:08:19;11.80;;;4.47;;
50932;SDS011;36921;49.006;9.292;2023-01-30T16:10:47;9.38;;;3.90;;
50932;SDS011;36921;49.006;9.292;2023-01-30T16:13:16;10.68;;;4.82;;
50932;SDS011;36921;49.006;9.292;2023-01-30T16:18:21;8.48;;;3.60;;
50932;SDS011;36921;49.006;9.292;2023-01-30T16:21:14;8.23;;;3.90;;
50932;SDS011;36921;49.006;9.292;2023-01-30T16:26:21;9.00;;;3.85;;
50932;SDS011;36921;49.006;9.292;2023-01-30T16:28:47;6.32;;;3.33;;
50932;SDS011;36921;49.006;9.292;2023-01-30T16:31:16;8.93;;;4.00;;
50932;SDS011;36921;49.006;9.292;2023-01-30T16:33:48;9.68;;;3.47;;
50932;SDS011;36921;49.006;9.292;2023-01-30T16:38:46;9.27;;;3.67;;
50932;SDS011;36921;49.006;9.292;2023-01-30T16:44:22;6.80;;;3.60;;
50932;SDS011;36921;49.006;9.292;2023-01-30T16:46:49;9.52;;;4.55;;
50932;SDS011;36921;49.006;9.292;2023-01-30T16:49:23;7.18;;;4.00;;
50932;SDS011;36921;49.006;9.292;2023-01-30T16:52:43;9.45;;;3.50;;
50932;SDS011;36921;49.006;9.292;2023-01-30T16:54:53;6.95;;;3.45;;
50932;SDS011;36921;49.006;9.292;2023-01-30T16:57:24;8.43;;;3.38;;
50932;SDS011;36921;49.006;9.292;2023-01-30T17:00:05;7.88;;;3.40;;
50932;SDS011;36921;49.006;9.292;2023-01-30T17:02:46;5.90;;;3.30;;
50932;SDS011;36921;49.006;9.292;2023-01-30T17:07:46;8.13;;;3.70;;
50932;SDS011;36921;49.006;9.292;2023-01-30T17:13:03;8.15;;;4.05;;
50932;SDS011;36921;49.006;9.292;2023-01-30T17:15:38;9.68;;;4.03;;
50932;SDS011;36921;49.006;9.292;2023-01-30T17:18:03;10.40;;;4.20;;
50932;SDS011;36921;49.006;9.292;2023-01-30T17:20:32;8.77;;;4.38;;
50932;SDS011;36921;49.006;9.292;2023-01-30T17:25:46;7.47;;;4.38;;
50932;SDS011;36921;49.006;9.292;2023-01-30T17:28:28;10.98;;;4.78;;
50932;SDS011;36921;49.006;9.292;2023-01-30T17:30:54;8.52;;;4.15;;
50932;SDS011;36921;49.006;9.292;2023-01-30T17:33:19;8.93;;;4.30;;
50932;SDS011;36921;49.006;9.292;2023-01-30T17:35:44;9.77;;;4.40;;
50932;SDS011;36921;49.006;9.292;2023-01-30T17:38:10;13.70;;;5.25;;
50932;SDS011;36921;49.006;9.292;2023-01-30T17:40:36;9.27;;;4.30;;
50932;SDS011;36921;49.006;9.292;2023-01-30T17:43:02;11.32;;;5.18;;
50932;SDS011;36921;49.006;9.292;2023-01-30T17:45:28;12.57;;;4.60;;
50932;SDS011;36921;49.006;9.292;2023-01-30T17:47:54;12.13;;;5.80;;
50932;SDS011;36921;49.006;9.292;2023-01-30T17:50:19;10.93;;;4.95;;
50932;SDS011;36921;49.006;9.292;2023-01-30T17:52:45;11.00;;;5.32;;
50932;SDS011;36921;49.006;9.292;2023-01-30T17:55:11;10.18;;;4.57;;
50932;SDS011;36921;49.006;9.292;2023-01-30T17:57:37;8.05;;;4.60;;
50932;SDS011;36921;49.006;9.292;2023-01-30T18:00:04;8.13;;;4.75;;
50932;SDS011;36921;49.006;9.292;2023-01-30T18:02:30;10.05;;;5.43;;
50932;SDS011;36921;49.006;9.292;2023-01-30T18:07:26;9.73;;;4.60;;
50932;SDS011;36921;49.006;9.292;2023-01-30T18:09:53;14.15;;;5.68;;
50932;SDS011;36921;49.006;9.292;2023-01-30T18:12:20;11.10;;;5.20;;
50932;SDS011;36921;49.006;9.292;2023-01-30T18:14:45;12.60;;;5.78;;
50932;SDS011;36921;49.006;9.292;2023-01-30T18:17:10;8.85;;;4.80;;
50932;SDS011;36921;49.006;9.292;2023-01-30T18:19:36;9.40;;;5.18;;
50932;SDS011;36921;49.006;9.292;2023-01-30T18:22:02;10.77;;;5.10;;
50932;SDS011;36921;49.006;9.292;2023-01-30T18:24:27;9.10;;;4.65;;
50932;SDS011;36921;49.006;9.292;2023-01-30T18:26:52;15.85;;;6.10;;
50932;SDS011;36921;49.006;9.292;2023-01-30T18:29:18;9.95;;;4.60;;